Time;durP1;ratioP1;P1;durP2;ratioP2;P2;SDS_P1;SDS_P2;PMS_P1;PMS_P2;Temp;Humidity;BMP_temperature;BMP_pressure;BME280_temperature;BME280_humidity;BME280_pressure;Samples;Min_cycle;Max_cycle;Signal;HPM_P1;HPM_P2
2022/02/18 00:00:27;;;;;;;33.25;4.85;;;8.10;99.90;;;-146.41;100.00;57768.22;4944530;29;20130;-66
2022/02/18 00:02:54;;;;;;;34.70;4.07;;;8.10;99.90;;;-146.41;100.00;57768.22;4944359;29;20134;-66
2022/02/18 00:05:22;;;;;;;36.88;5.75;;;8.10;99.90;;;-146.41;100.00;57768.22;4947598;29;20150;-66
2022/02/18 00:07:49;;;;;;;35.45;5.40;;;8.10;99.90;;;-146.41;100.00;57768.22;4942816;28;20133;-66
2022/02/18 00:10:16;;;;;;;38.55;4.75;;;8.10;99.90;;;-146.41;100.00;57768.22;4941563;29;20134;-66
2022/02/18 00:12:45;;;;;;;29.48;4.85;;;8.20;99.90;;;-146.41;100.00;57768.22;4944787;29;20087;-66
2022/02/18 00:15:18;;;;;;;33.20;4.97;;;8.30;99.90;;;-146.41;100.00;57768.22;4941873;29;20060;-66
2022/02/18 00:17:45;;;;;;;30.40;4.40;;;8.20;99.90;;;-146.41;100.00;57768.22;4944244;29;20407;-66
2022/02/18 00:20:12;;;;;;;31.00;4.80;;;8.10;99.90;;;-146.41;100.00;57768.22;4944962;29;20729;-66
2022/02/18 00:22:39;;;;;;;32.28;4.15;;;8.20;99.90;;;-146.41;100.00;57768.22;4941040;29;20134;-66
2022/02/18 00:25:08;;;;;;;34.88;5.13;;;8.10;99.90;;;-146.41;100.00;57768.22;4943306;29;20147;-66
2022/02/18 00:27:38;;;;;;;35.85;4.72;;;8.00;99.90;;;-146.41;100.00;57768.22;4929385;28;20334;-66
2022/02/18 00:30:08;;;;;;;28.10;4.20;;;8.00;99.90;;;-146.41;100.00;57768.22;4943913;28;20075;-67
2022/02/18 00:32:35;;;;;;;30.15;5.07;;;8.20;99.90;;;-146.41;100.00;57768.22;4940884;29;20141;-66
2022/02/18 00:35:04;;;;;;;36.92;5.03;;;8.10;99.90;;;-146.41;100.00;57768.22;4928861;29;20603;-66
2022/02/18 00:37:32;;;;;;;33.30;5.30;;;8.10;99.90;;;-146.41;100.00;57768.22;4944508;29;20058;-66
2022/02/18 00:39:59;;;;;;;30.80;4.72;;;8.10;99.90;;;-146.41;100.00;57768.22;4945326;29;20107;-66
2022/02/18 00:42:27;;;;;;;38.40;6.13;;;8.10;99.90;;;-146.41;100.00;57768.22;4943451;28;20146;-66
2022/02/18 00:44:54;;;;;;;35.17;5.72;;;8.00;99.90;;;-146.41;100.00;57768.22;4944406;28;20732;-66
2022/02/18 00:47:22;;;;;;;30.92;4.47;;;8.00;99.90;;;-146.41;100.00;57768.22;4943431;29;20085;-66
2022/02/18 00:49:49;;;;;;;30.90;4.82;;;8.00;99.90;;;-146.41;100.00;57768.22;4944215;29;20178;-66
2022/02/18 00:52:17;;;;;;;32.08;4.97;;;7.80;99.90;;;-146.41;100.00;57768.22;4939975;29;20130;-66
2022/02/18 00:54:44;;;;;;;35.42;4.72;;;7.80;99.90;;;-146.41;100.00;57768.22;4944586;29;20142;-66
2022/02/18 00:57:11;;;;;;;41.30;5.18;;;7.80;99.90;;;-146.41;100.00;57768.22;4943584;29;20343;-67
2022/02/18 00:59:38;;;;;;;29.55;4.93;;;7.90;99.90;;;-146.41;100.00;57768.22;4943487;28;20091;-66
2022/02/18 01:02:05;;;;;;;36.78;5.22;;;7.80;99.90;;;-146.41;100.00;57768.22;4943857;29;20093;-66
2022/02/18 01:04:33;;;;;;;33.08;5.05;;;7.80;99.90;;;-146.41;100.00;57768.22;4925712;29;20123;-66
2022/02/18 01:07:01;;;;;;;28.17;3.88;;;7.70;99.90;;;-146.41;100.00;57768.22;4942247;29;20058;-66
2022/02/18 01:09:28;;;;;;;34.42;4.38;;;7.70;99.90;;;-146.41;100.00;57768.22;4943801;29;20377;-66
2022/02/18 01:11:55;;;;;;;29.40;4.30;;;7.70;99.90;;;-146.41;100.00;57768.22;4940295;29;20118;-66
2022/02/18 01:14:24;;;;;;;34.45;5.30;;;7.70;99.90;;;-146.41;100.00;57768.22;4942162;29;20098;-66
2022/02/18 01:16:51;;;;;;;31.70;3.78;;;7.70;99.90;;;-146.41;100.00;57768.22;4942582;29;20142;-66
2022/02/18 01:19:18;;;;;;;35.08;5.22;;;7.70;99.90;;;-146.41;100.00;57768.22;4927243;29;20122;-66
2022/02/18 01:21:46;;;;;;;32.25;5.40;;;7.70;99.90;;;-146.41;100.00;57768.22;4941069;29;20595;-66
2022/02/18 01:24:13;;;;;;;33.88;4.53;;;7.80;99.90;;;-146.41;100.00;57768.22;4945088;29;20055;-66
2022/02/18 01:26:40;;;;;;;34.38;5.30;;;7.80;99.90;;;-146.41;100.00;57768.22;4943886;29;20055;-66
2022/02/18 01:29:07;;;;;;;25.40;4.07;;;7.80;99.90;;;-146.41;100.00;57768.22;4942972;28;20052;-66
2022/02/18 01:31:37;;;;;;;29.50;4.72;;;7.60;99.90;;;-146.41;100.00;57768.22;4940348;29;20197;-66
2022/02/18 01:34:04;;;;;;;30.75;4.63;;;7.50;99.90;;;-146.41;100.00;57768.22;4942787;29;20476;-66
2022/02/18 01:36:31;;;;;;;27.50;4.95;;;7.60;99.90;;;-146.41;100.00;57768.22;4940446;29;20459;-66
2022/02/18 01:38:58;;;;;;;34.65;4.70;;;7.60;99.90;;;-146.41;100.00;57768.22;4942430;29;20050;-67
2022/02/18 01:41:25;;;;;;;31.02;5.55;;;7.60;99.90;;;-146.41;100.00;57768.22;4924044;29;20048;-66
2022/02/18 01:43:55;;;;;;;31.85;5.05;;;7.60;99.90;;;-146.41;100.00;57768.22;4941661;29;20146;-66
2022/02/18 01:46:23;;;;;;;26.08;4.28;;;7.70;99.90;;;-146.41;100.00;57768.22;4943215;29;20500;-66
2022/02/18 01:48:54;;;;;;;24.65;4.55;;;7.50;99.90;;;-146.41;100.00;57768.22;4926788;29;20145;-66
2022/02/18 01:51:23;;;;;;;28.92;5.40;;;7.50;99.90;;;-146.41;100.00;57768.22;4938874;29;20143;-67
2022/02/18 01:53:53;;;;;;;30.60;5.35;;;7.50;99.90;;;-146.41;100.00;57768.22;4912436;29;20050;-66
2022/02/18 01:56:22;;;;;;;27.00;4.22;;;7.50;99.90;;;-146.41;100.00;57768.22;4942075;29;20082;-66
2022/02/18 01:58:50;;;;;;;29.88;4.03;;;7.60;99.90;;;-146.41;100.00;57768.22;4939550;29;20339;-66
2022/02/18 02:01:17;;;;;;;27.38;4.32;;;7.60;99.90;;;-146.41;100.00;57768.22;4939703;29;20122;-66
2022/02/18 02:03:44;;;;;;;29.35;4.93;;;7.50;99.90;;;-146.41;100.00;57768.22;4937422;28;20147;-66
2022/02/18 02:06:13;;;;;;;28.95;4.57;;;7.60;99.90;;;-146.41;100.00;57768.22;4936949;28;20051;-66
2022/02/18 02:08:41;;;;;;;30.00;4.05;;;7.50;99.90;;;-146.41;100.00;57768.22;4941405;29;20090;-66
2022/02/18 02:11:08;;;;;;;40.00;5.50;;;7.60;99.90;;;-146.41;100.00;57768.22;4940556;29;20138;-66
2022/02/18 02:13:39;;;;;;;25.02;4.72;;;7.60;99.90;;;-146.41;100.00;57768.22;4941228;29;20485;-67
2022/02/18 02:16:07;;;;;;;32.72;4.70;;;7.60;99.90;;;-146.41;100.00;57768.22;4935277;29;20107;-66
2022/02/18 02:18:34;;;;;;;41.60;6.35;;;7.40;99.90;;;-146.41;100.00;57768.22;4941014;29;20134;-66
2022/02/18 02:21:01;;;;;;;31.13;4.47;;;7.40;99.90;;;-146.41;100.00;57768.22;4941956;29;20058;-66
2022/02/18 02:23:28;;;;;;;26.83;4.10;;;7.50;99.90;;;-146.41;100.00;57768.22;4939981;29;20044;-66
2022/02/18 02:25:57;;;;;;;25.92;4.55;;;7.50;99.90;;;-146.41;100.00;57768.22;4941037;29;20318;-66
2022/02/18 02:28:25;;;;;;;35.58;4.13;;;7.40;99.90;;;-146.41;100.00;57768.22;4940735;29;20073;-66
2022/02/18 02:30:52;;;;;;;33.08;4.05;;;7.20;99.90;;;-146.41;100.00;57768.22;4930659;29;20106;-66
2022/02/18 02:33:19;;;;;;;32.78;3.63;;;7.20;99.90;;;-146.41;100.00;57768.22;4943832;29;20385;-67
2022/02/18 02:35:46;;;;;;;34.30;5.28;;;7.20;99.90;;;-146.41;100.00;57768.22;4945523;29;20106;-66
2022/02/18 02:38:13;;;;;;;27.90;4.10;;;7.30;99.90;;;-146.41;100.00;57768.22;4928318;29;20802;-66
2022/02/18 02:40:40;;;;;;;29.63;3.97;;;7.20;99.90;;;-146.41;100.00;57768.22;4947080;29;20058;-66
2022/02/18 02:43:07;;;;;;;34.30;4.55;;;7.20;99.90;;;-146.41;100.00;57768.22;4945053;29;20162;-66
2022/02/18 02:45:34;;;;;;;36.53;4.68;;;7.20;99.90;;;-146.41;100.00;57768.22;4945285;29;20138;-66
2022/02/18 02:48:01;;;;;;;37.80;5.70;;;7.10;99.90;;;-146.41;100.00;57768.22;4942704;29;20134;-66
2022/02/18 02:50:28;;;;;;;36.40;5.63;;;7.30;99.90;;;-146.41;100.00;57768.22;4941744;29;20142;-66
2022/02/18 02:52:55;;;;;;;32.08;3.83;;;7.30;99.90;;;-146.41;100.00;57768.22;4945007;29;20127;-66
2022/02/18 02:55:22;;;;;;;35.28;4.30;;;7.30;99.90;;;-146.41;100.00;57768.22;4943279;29;20130;-66
2022/02/18 02:57:50;;;;;;;31.88;4.20;;;7.30;99.90;;;-146.41;100.00;57768.22;4944806;29;20122;-66
2022/02/18 03:00:17;;;;;;;29.35;4.50;;;7.40;99.90;;;-146.41;100.00;57768.22;4944562;29;20134;-66
2022/02/18 03:02:44;;;;;;;29.77;4.22;;;7.40;99.90;;;-146.41;100.00;57768.22;4937859;29;20126;-66
2022/02/18 03:05:13;;;;;;;34.70;4.97;;;7.40;99.90;;;-146.41;100.00;57768.22;4942039;29;20147;-66
2022/02/18 03:07:41;;;;;;;29.00;4.50;;;7.30;99.90;;;-146.41;100.00;57768.22;4929370;29;20154;-66
2022/02/18 03:10:09;;;;;;;29.67;3.55;;;7.30;99.90;;;-146.41;100.00;57768.22;4942966;29;20480;-66
2022/02/18 03:12:37;;;;;;;28.65;4.07;;;7.30;99.90;;;-146.41;100.00;57768.22;4945035;29;20134;-66
2022/02/18 03:15:05;;;;;;;35.83;4.70;;;7.30;99.90;;;-146.41;100.00;57768.22;4941300;29;20082;-66
2022/02/18 03:17:32;;;;;;;29.13;4.53;;;7.30;99.90;;;-146.41;100.00;57768.22;4946529;29;20051;-66
2022/02/18 03:19:59;;;;;;;28.65;4.47;;;7.30;99.90;;;-146.41;100.00;57768.22;4945285;28;20059;-66
2022/02/18 03:22:26;;;;;;;28.67;4.18;;;7.30;99.90;;;-146.41;100.00;57768.22;4944303;29;20111;-66
2022/02/18 03:24:53;;;;;;;21.33;3.33;;;7.30;99.90;;;-146.41;100.00;57768.22;4942567;29;20130;-66
2022/02/18 03:27:20;;;;;;;30.45;3.78;;;7.30;99.90;;;-146.41;100.00;57768.22;4945372;29;20189;-66
2022/02/18 03:29:48;;;;;;;30.98;5.32;;;7.30;99.90;;;-146.41;100.00;57768.22;4944083;29;20494;-66
2022/02/18 03:32:18;;;;;;;26.98;4.55;;;7.30;99.90;;;-146.41;100.00;57768.22;4940716;29;20063;-66
2022/02/18 03:34:47;;;;;;;27.17;4.20;;;7.40;99.90;;;-146.41;100.00;57768.22;4941775;29;20047;-66
2022/02/18 03:37:15;;;;;;;29.77;4.43;;;7.20;99.90;;;-146.41;100.00;57768.22;4945722;28;20532;-66
2022/02/18 03:39:42;;;;;;;33.22;4.30;;;7.20;99.90;;;-146.41;100.00;57768.22;4941874;29;20182;-67
2022/02/18 03:42:09;;;;;;;27.98;4.22;;;7.20;99.90;;;-146.41;100.00;57768.22;4942267;28;20146;-66
2022/02/18 03:44:36;;;;;;;30.73;4.45;;;7.40;99.90;;;-146.41;100.00;57768.22;4924965;29;20150;-66
2022/02/18 03:47:04;;;;;;;28.02;3.65;;;7.20;99.90;;;-146.41;100.00;57768.22;4943015;29;20126;-66
2022/02/18 03:49:31;;;;;;;35.38;4.55;;;7.20;99.90;;;-146.41;100.00;57768.22;4943731;29;20178;-66
2022/02/18 03:51:58;;;;;;;31.23;4.45;;;7.20;99.90;;;-146.41;100.00;57768.22;4943943;29;20134;-66
2022/02/18 03:54:26;;;;;;;24.50;4.50;;;7.40;99.90;;;-146.41;100.00;57768.22;4943715;29;20555;-67
2022/02/18 03:56:54;;;;;;;23.77;4.13;;;7.30;99.90;;;-146.41;100.00;57768.22;4941858;29;20179;-67
2022/02/18 03:59:21;;;;;;;31.48;4.80;;;7.40;99.90;;;-146.41;100.00;57768.22;4942835;29;20134;-66
2022/02/18 04:01:48;;;;;;;23.08;3.33;;;7.50;99.90;;;-146.41;100.00;57768.22;4942126;29;20209;-66
2022/02/18 04:04:16;;;;;;;26.98;4.00;;;7.30;99.90;;;-146.41;100.00;57768.22;4944409;29;20085;-66
2022/02/18 04:06:43;;;;;;;25.40;3.55;;;7.30;99.90;;;-146.41;100.00;57768.22;4945192;29;20213;-66
2022/02/18 04:09:10;;;;;;;25.90;3.60;;;7.40;99.90;;;-146.41;100.00;57768.22;4941796;28;20452;-66
2022/02/18 04:11:37;;;;;;;25.55;3.83;;;7.50;99.90;;;-146.41;100.00;57768.22;4942236;29;20130;-66
2022/02/18 04:14:03;;;;;;;40.90;4.25;;;7.30;99.90;;;-146.41;100.00;57768.22;4929938;29;20051;-66
2022/02/18 04:16:31;;;;;;;27.98;4.40;;;7.30;99.90;;;-146.41;100.00;57768.22;4940056;29;20116;-66
2022/02/18 04:18:58;;;;;;;21.92;4.43;;;7.40;99.90;;;-146.41;100.00;57768.22;4942236;29;20055;-66
2022/02/18 04:21:25;;;;;;;33.97;4.82;;;7.40;99.90;;;-146.41;100.00;57768.22;4941196;28;20127;-66
2022/02/18 04:23:52;;;;;;;20.83;4.15;;;7.40;99.90;;;-146.41;100.00;57768.22;4938859;29;20082;-66
2022/02/18 04:26:19;;;;;;;25.25;3.50;;;7.50;99.90;;;-146.41;100.00;57768.22;4941921;29;20055;-66
2022/02/18 04:28:46;;;;;;;22.98;3.55;;;7.30;99.90;;;-146.41;100.00;57768.22;4923702;29;20421;-66
2022/02/18 04:31:13;;;;;;;23.65;3.70;;;7.30;99.90;;;-146.41;100.00;57768.22;4941144;29;20083;-66
2022/02/18 04:33:40;;;;;;;20.65;3.80;;;7.30;99.90;;;-146.41;100.00;57768.22;4942585;28;20575;-66
2022/02/18 04:36:07;;;;;;;21.33;3.50;;;7.30;99.90;;;-146.41;100.00;57768.22;4944386;29;20529;-66
2022/02/18 04:38:34;;;;;;;34.35;3.67;;;7.50;99.90;;;-146.41;100.00;57768.22;4942030;29;20536;-66
2022/02/18 04:41:02;;;;;;;29.15;3.85;;;7.30;99.90;;;-146.41;100.00;57768.22;4941136;29;20086;-66
2022/02/18 04:43:29;;;;;;;24.15;4.00;;;7.40;99.90;;;-146.41;100.00;57768.22;4943339;28;20130;-66
2022/02/18 04:45:56;;;;;;;19.55;3.08;;;7.60;99.90;;;-146.41;100.00;57768.22;4944802;29;20146;-66
2022/02/18 04:48:24;;;;;;;21.15;3.05;;;7.40;99.90;;;-146.41;100.00;57768.22;4943604;29;20073;-67
2022/02/18 04:50:51;;;;;;;25.08;3.42;;;7.50;99.90;;;-146.41;100.00;57768.22;4942226;29;20051;-66
2022/02/18 04:53:36;;;;;;;27.17;2.85;;;7.60;99.90;;;-146.41;100.00;57768.22;4940741;29;20051;-67
2022/02/18 04:56:09;;;;;;;34.70;4.70;;;7.60;99.90;;;-146.41;100.00;57768.22;4913441;29;20469;-66
2022/02/18 04:58:37;;;;;;;21.40;3.08;;;7.50;99.90;;;-146.41;100.00;57768.22;4943554;29;20069;-67
2022/02/18 05:01:06;;;;;;;16.30;2.83;;;7.50;99.90;;;-146.41;100.00;57768.22;4928363;29;20691;-67
2022/02/18 05:03:33;;;;;;;17.85;3.47;;;7.50;99.90;;;-146.41;100.00;57768.22;4942193;29;20504;-67
2022/02/18 05:06:01;;;;;;;22.90;3.45;;;7.50;99.90;;;-146.41;100.00;57768.22;4945208;29;20504;-67
2022/02/18 05:08:28;;;;;;;24.52;3.47;;;7.50;99.90;;;-146.41;100.00;57768.22;4943148;29;20139;-67
2022/02/18 05:10:55;;;;;;;29.77;4.55;;;7.40;99.90;;;-146.41;100.00;57768.22;4946115;29;20050;-67
2022/02/18 05:13:22;;;;;;;23.45;3.15;;;7.50;99.90;;;-146.41;100.00;57768.22;4942532;29;20099;-67
2022/02/18 05:15:49;;;;;;;24.13;3.58;;;7.40;99.90;;;-146.41;100.00;57768.22;4937663;29;20149;-67
2022/02/18 05:18:16;;;;;;;19.63;3.45;;;7.30;99.90;;;-146.41;100.00;57768.22;4941841;29;20134;-66
2022/02/18 05:20:43;;;;;;;21.58;3.45;;;7.30;99.90;;;-146.41;100.00;57768.22;4926803;29;20182;-66
2022/02/18 05:23:10;;;;;;;20.35;3.53;;;7.30;99.90;;;-146.41;100.00;57768.22;4941160;29;20226;-66
2022/02/18 05:25:37;;;;;;;22.55;3.47;;;7.50;99.90;;;-146.41;100.00;57768.22;4939949;28;20039;-66
2022/02/18 05:28:04;;;;;;;26.23;3.25;;;7.30;99.90;;;-146.41;100.00;57768.22;4940004;29;20517;-66
2022/02/18 05:30:33;;;;;;;18.92;3.13;;;7.30;99.90;;;-146.41;100.00;57768.22;4939048;29;20075;-66
2022/02/18 05:33:00;;;;;;;18.30;3.13;;;7.30;99.90;;;-146.41;100.00;57768.22;4940065;29;20135;-66
2022/02/18 05:35:27;;;;;;;22.45;4.30;;;7.20;99.90;;;-146.41;100.00;57768.22;4941195;29;20059;-67
2022/02/18 05:37:54;;;;;;;25.27;4.05;;;7.20;99.90;;;-146.41;100.00;57768.22;4939770;29;20055;-66
2022/02/18 05:40:20;;;;;;;23.23;3.53;;;7.40;99.90;;;-146.41;100.00;57768.22;4941189;29;20056;-67
2022/02/18 05:42:47;;;;;;;19.15;3.28;;;7.20;99.90;;;-146.41;100.00;57768.22;4940183;29;20075;-67
2022/02/18 05:45:14;;;;;;;28.17;3.63;;;7.10;99.90;;;-146.41;100.00;57768.22;4941977;29;20127;-66
2022/02/18 05:47:41;;;;;;;25.95;4.20;;;7.50;99.90;;;-146.41;100.00;57768.22;4943357;29;20142;-66
2022/02/18 05:50:12;;;;;;;23.33;4.18;;;7.10;99.90;;;-146.41;100.00;57768.22;4940745;29;20504;-66
2022/02/18 05:52:41;;;;;;;24.10;3.60;;;7.10;99.90;;;-146.41;100.00;57768.22;4941239;29;20503;-66
2022/02/18 05:55:08;;;;;;;33.00;4.70;;;7.00;99.90;;;-146.41;100.00;57768.22;4942294;29;20151;-66
2022/02/18 05:57:36;;;;;;;28.77;3.95;;;7.10;99.90;;;-146.41;100.00;57768.22;4941025;29;20142;-67
2022/02/18 06:00:08;;;;;;;26.45;3.47;;;7.10;99.90;;;-146.41;100.00;57768.22;4928846;29;20083;-66
2022/02/18 06:02:38;;;;;;;25.00;3.45;;;7.20;99.90;;;-146.41;100.00;57768.22;4940699;29;20522;-66
2022/02/18 06:05:06;;;;;;;34.03;4.50;;;7.20;99.90;;;-146.41;100.00;57768.22;4940685;29;20476;-67
2022/02/18 06:07:33;;;;;;;32.53;3.70;;;7.30;99.90;;;-146.41;100.00;57768.22;4942976;29;20150;-66
2022/02/18 06:10:01;;;;;;;28.10;4.68;;;7.30;99.90;;;-146.41;100.00;57768.22;4946200;29;20138;-66
2022/02/18 06:12:28;;;;;;;27.00;4.55;;;7.30;99.90;;;-146.41;100.00;57768.22;4943641;28;20138;-66
2022/02/18 06:14:55;;;;;;;34.92;4.03;;;7.30;99.90;;;-146.41;100.00;57768.22;4943248;29;20138;-66
2022/02/18 06:17:22;;;;;;;28.55;4.47;;;7.30;99.90;;;-146.41;100.00;57768.22;4945220;28;20560;-66
2022/02/18 06:19:49;;;;;;;21.83;3.50;;;7.30;99.90;;;-146.41;100.00;57768.22;4939416;28;20497;-66
2022/02/18 06:22:16;;;;;;;39.58;4.30;;;7.20;99.90;;;-146.41;100.00;57768.22;4946788;28;20090;-66
2022/02/18 06:24:44;;;;;;;22.00;2.90;;;7.20;99.90;;;-146.41;100.00;57768.22;4927829;29;20055;-66
2022/02/18 06:27:11;;;;;;;30.98;4.55;;;7.30;99.90;;;-146.41;100.00;57768.22;4941773;29;20126;-66
2022/02/18 06:29:38;;;;;;;27.00;4.25;;;7.20;99.90;;;-146.41;100.00;57768.22;4943631;29;20078;-66
2022/02/18 06:32:08;;;;;;;24.52;3.80;;;7.20;99.90;;;-146.41;100.00;57768.22;4940184;29;20043;-66
2022/02/18 06:34:35;;;;;;;26.35;4.07;;;7.10;99.90;;;-146.41;100.00;57768.22;4938105;29;20090;-66
2022/02/18 06:37:04;;;;;;;31.00;3.65;;;7.10;99.90;;;-146.41;100.00;57768.22;4943019;29;20149;-66
2022/02/18 06:39:35;;;;;;;30.40;4.03;;;7.10;99.90;;;-146.41;100.00;57768.22;4945553;29;20161;-66
2022/02/18 06:42:03;;;;;;;31.48;4.00;;;7.20;99.90;;;-146.41;100.00;57768.22;4928233;29;20057;-66
2022/02/18 06:44:30;;;;;;;29.42;4.13;;;7.20;99.90;;;-146.41;100.00;57768.22;4941338;28;20146;-66
2022/02/18 06:46:57;;;;;;;23.90;4.53;;;7.20;99.90;;;-146.41;100.00;57768.22;4941492;29;20054;-66
2022/02/18 06:49:24;;;;;;;21.67;3.38;;;7.20;99.90;;;-146.41;100.00;57768.22;4942584;29;20484;-66
2022/02/18 06:51:55;;;;;;;17.65;2.72;;;7.20;99.90;;;-146.41;100.00;57768.22;4944871;29;20492;-66
2022/02/18 06:54:23;;;;;;;18.15;2.38;;;7.40;99.90;;;-146.41;100.00;57768.22;4942031;29;20134;-66
2022/02/18 06:56:56;;;;;;;18.35;2.53;;;7.20;99.90;;;-146.41;100.00;57768.22;4941084;29;20130;-66
2022/02/18 06:59:23;;;;;;;17.75;2.35;;;7.40;99.90;;;-146.41;100.00;57768.22;4942949;29;20103;-66
2022/02/18 07:01:53;;;;;;;15.07;1.65;;;7.50;99.90;;;-146.41;100.00;57768.22;4945517;29;20062;-66
2022/02/18 07:04:21;;;;;;;11.95;2.65;;;7.40;99.90;;;-146.41;100.00;57768.22;4946607;29;20063;-66
2022/02/18 07:06:49;;;;;;;10.38;2.35;;;7.50;99.90;;;-146.41;100.00;57768.22;4939527;29;20117;-66
2022/02/18 07:09:16;;;;;;;9.88;1.00;;;7.50;99.90;;;-146.41;100.00;57768.22;4939666;29;20487;-67
2022/02/18 07:11:44;;;;;;;9.10;1.45;;;7.50;99.90;;;-146.41;100.00;57768.22;4926809;29;20055;-67
2022/02/18 07:14:11;;;;;;;7.15;1.30;;;7.60;99.90;;;-146.41;100.00;57768.22;4942361;28;20062;-66
2022/02/18 07:16:41;;;;;;;7.00;1.15;;;7.70;99.90;;;-146.41;100.00;57768.22;4941022;28;20075;-67
2022/02/18 07:19:13;;;;;;;9.35;1.65;;;7.70;99.90;;;-146.41;100.00;57768.22;4944733;29;20054;-67
2022/02/18 07:21:41;;;;;;;8.82;1.75;;;7.70;99.90;;;-146.41;100.00;57768.22;4940810;29;20442;-67
2022/02/18 07:24:10;;;;;;;5.68;1.23;;;7.70;99.90;;;-146.41;100.00;57768.22;4928967;29;20051;-67
2022/02/18 07:26:38;;;;;;;6.50;2.03;;;7.90;99.90;;;-146.41;100.00;57768.22;4945331;28;20437;-67
2022/02/18 07:29:06;;;;;;;9.00;2.47;;;8.00;99.90;;;-146.41;100.00;57768.22;4943411;28;20130;-67
2022/02/18 07:31:33;;;;;;;9.20;2.50;;;8.10;99.90;;;-146.41;100.00;57768.22;4947321;29;20106;-67
2022/02/18 07:34:00;;;;;;;6.72;1.80;;;8.20;99.90;;;-146.41;100.00;57768.22;4945892;29;20409;-67
2022/02/18 07:36:27;;;;;;;9.48;2.60;;;8.30;99.90;;;-146.41;100.00;57768.22;4948117;29;20126;-67
2022/02/18 07:38:54;;;;;;;9.52;2.58;;;8.40;99.90;;;-146.41;100.00;57768.22;4945282;29;20082;-67
2022/02/18 07:41:20;;;;;;;9.40;2.63;;;8.50;99.90;;;-146.41;100.00;57768.22;4945225;29;20090;-67
2022/02/18 07:43:48;;;;;;;9.05;2.60;;;8.50;99.90;;;-146.41;100.00;57768.22;4944787;29;20425;-66
2022/02/18 07:46:18;;;;;;;8.13;2.20;;;8.60;99.90;;;-146.41;100.00;57768.22;4931374;29;20058;-67
2022/02/18 07:48:44;;;;;;;4.95;1.67;;;8.60;99.90;;;-146.41;100.00;57768.22;4940349;29;20048;-67
2022/02/18 07:51:11;;;;;;;6.57;2.17;;;8.60;99.90;;;-146.41;100.00;57768.22;4943601;29;20089;-66
2022/02/18 07:53:39;;;;;;;6.32;2.55;;;8.70;99.90;;;-146.41;100.00;57768.22;4941666;29;20079;-67
2022/02/18 07:56:06;;;;;;;12.07;3.47;;;8.70;99.90;;;-146.41;100.00;57768.22;4941616;29;20076;-67
2022/02/18 07:58:33;;;;;;;7.72;2.90;;;8.80;99.90;;;-146.41;100.00;57768.22;4922649;29;20134;-67
2022/02/18 08:01:00;;;;;;;6.45;2.35;;;8.80;99.90;;;-146.41;100.00;57768.22;4943470;29;20598;-67
2022/02/18 08:03:27;;;;;;;7.68;2.72;;;8.90;99.90;;;-146.41;100.00;57768.22;4941799;28;20461;-67
2022/02/18 08:05:54;;;;;;;5.65;2.42;;;9.00;99.90;;;-146.41;100.00;57768.22;4942623;28;20075;-67
2022/02/18 08:08:24;;;;;;;6.55;2.35;;;9.00;99.90;;;-146.41;100.00;57768.22;4942100;29;20081;-67
2022/02/18 08:10:51;;;;;;;8.00;3.03;;;9.10;99.90;;;-146.41;100.00;57768.22;4946050;29;20047;-67
2022/02/18 08:13:19;;;;;;;7.22;2.60;;;9.10;99.90;;;-146.41;100.00;57768.22;4941542;29;20479;-66
2022/02/18 08:15:46;;;;;;;7.25;2.90;;;9.20;99.90;;;-146.41;100.00;57768.22;4940796;29;20059;-67
2022/02/18 08:18:20;;;;;;;6.68;2.35;;;9.20;99.90;;;-146.41;100.00;57768.22;4946724;29;20062;-67
2022/02/18 08:20:48;;;;;;;4.70;2.20;;;9.30;99.90;;;-146.41;100.00;57768.22;4945425;29;20468;-66
2022/02/18 08:23:15;;;;;;;11.45;1.92;;;9.20;99.90;;;-146.41;100.00;57768.22;4941016;29;20583;-67
2022/02/18 08:25:42;;;;;;;10.60;1.85;;;9.30;99.90;;;-146.41;100.00;57768.22;4943842;29;20138;-67
2022/02/18 08:28:09;;;;;;;5.25;1.60;;;9.50;99.90;;;-146.41;100.00;57768.22;4944507;28;20070;-67
2022/02/18 08:30:37;;;;;;;7.95;1.95;;;9.50;99.90;;;-146.41;100.00;57768.22;4947164;29;20074;-67
2022/02/18 08:33:04;;;;;;;6.22;2.13;;;9.50;99.90;;;-146.41;100.00;57768.22;4942721;29;20106;-67
2022/02/18 08:35:32;;;;;;;5.38;1.33;;;9.50;99.90;;;-146.41;100.00;57768.22;4946078;29;20126;-67
2022/02/18 08:38:00;;;;;;;4.75;1.17;;;9.50;99.90;;;-146.41;100.00;57768.22;4941860;29;20050;-67
2022/02/18 08:40:27;;;;;;;6.25;1.52;;;9.50;99.90;;;-146.41;100.00;57768.22;4941324;29;20102;-67
2022/02/18 08:42:54;;;;;;;4.38;0.93;;;9.70;99.90;;;-146.41;100.00;57768.22;4941289;29;20150;-67
2022/02/18 08:45:22;;;;;;;5.07;1.10;;;9.60;99.90;;;-146.41;100.00;57768.22;4940636;29;20055;-67
2022/02/18 08:47:49;;;;;;;4.13;1.02;;;9.70;99.90;;;-146.41;100.00;57768.22;4940240;29;20126;-67
2022/02/18 08:50:16;;;;;;;5.85;1.33;;;9.80;99.90;;;-146.41;100.00;57768.22;4941053;29;20075;-67
2022/02/18 08:52:44;;;;;;;9.07;1.63;;;9.90;99.90;;;-146.41;100.00;57768.22;4943123;29;20139;-67
2022/02/18 08:55:14;;;;;;;7.22;1.00;;;9.90;99.90;;;-146.41;100.00;57768.22;4927424;29;20109;-67
2022/02/18 08:57:43;;;;;;;5.00;1.00;;;9.90;99.90;;;-146.41;100.00;57768.22;4939782;29;20460;-67
2022/02/18 09:00:11;;;;;;;9.32;1.13;;;9.90;99.90;;;-146.41;100.00;57768.22;4938396;29;20130;-67
2022/02/18 09:02:39;;;;;;;6.03;0.90;;;10.00;99.90;;;-146.41;100.00;57768.22;4941203;28;20158;-67
2022/02/18 09:05:07;;;;;;;3.42;0.82;;;10.00;99.90;;;-146.41;100.00;57768.22;4942323;29;20158;-67
2022/02/18 09:07:34;;;;;;;5.80;0.70;;;10.10;99.90;;;-146.41;100.00;57768.22;4928001;29;20134;-67
2022/02/18 09:10:02;;;;;;;2.75;0.75;;;10.20;99.90;;;-146.41;100.00;57768.22;4941040;29;20572;-67
2022/02/18 09:12:29;;;;;;;4.97;1.02;;;10.10;99.90;;;-146.41;100.00;57768.22;4942265;29;20055;-67
2022/02/18 09:14:56;;;;;;;3.95;0.95;;;10.30;99.90;;;-146.41;100.00;57768.22;4940369;29;20078;-67
2022/02/18 09:17:23;;;;;;;3.85;0.60;;;10.30;99.90;;;-146.41;100.00;57768.22;4942451;29;20053;-67
2022/02/18 09:19:52;;;;;;;2.53;0.80;;;10.20;99.90;;;-146.41;100.00;57768.22;4945785;29;20047;-67
2022/02/18 09:22:19;;;;;;;3.03;1.10;;;10.30;99.90;;;-146.41;100.00;57768.22;4943886;28;20109;-66
2022/02/18 09:24:48;;;;;;;3.97;0.95;;;10.10;99.90;;;-146.41;100.00;57768.22;4941665;29;20147;-66
2022/02/18 09:27:15;;;;;;;3.42;0.80;;;10.40;99.90;;;-146.41;100.00;57768.22;4941289;29;20085;-66
2022/02/18 09:29:42;;;;;;;5.05;1.10;;;10.50;99.90;;;-146.41;100.00;57768.22;4940808;29;20079;-67
2022/02/18 09:32:09;;;;;;;3.22;0.60;;;10.60;99.90;;;-146.41;100.00;57768.22;4940449;29;20354;-66
2022/02/18 09:34:37;;;;;;;3.15;0.90;;;10.70;99.90;;;-146.41;100.00;57768.22;4928124;29;20465;-66
2022/02/18 09:37:05;;;;;;;2.50;0.65;;;10.70;99.90;;;-146.41;100.00;57768.22;4936326;29;20084;-66
2022/02/18 09:39:32;;;;;;;3.47;0.80;;;10.80;99.90;;;-146.41;100.00;57768.22;4943966;28;20097;-66
2022/02/18 09:41:59;;;;;;;4.25;1.08;;;10.80;99.90;;;-146.41;100.00;57768.22;4942412;28;20498;-67
2022/02/18 09:44:29;;;;;;;5.13;0.70;;;10.90;99.90;;;-146.41;100.00;57768.22;4944772;29;20428;-66
2022/02/18 09:46:58;;;;;;;3.90;0.70;;;10.90;99.90;;;-146.41;100.00;57768.22;4938886;29;20054;-66
2022/02/18 09:49:25;;;;;;;1.48;0.60;;;10.90;99.90;;;-146.41;100.00;57768.22;4929169;29;20069;-66
2022/02/18 09:51:53;;;;;;;1.88;0.70;;;10.90;99.90;;;-146.41;100.00;57768.22;4942775;29;20082;-66
2022/02/18 09:54:20;;;;;;;2.72;0.63;;;11.00;99.90;;;-146.41;100.00;57768.22;4945695;29;20051;-68
2022/02/18 09:56:48;;;;;;;2.38;0.98;;;11.20;99.90;;;-146.41;100.00;57768.22;4943687;29;20086;-66
2022/02/18 09:59:15;;;;;;;7.40;0.90;;;;;;;-146.41;100.00;57768.22;4934153;29;20047;-66
2022/02/18 10:01:43;;;;;;;2.00;0.82;;;11.40;99.90;;;-146.41;100.00;57768.22;4945593;29;20615;-66